»·PEaware :: SWA126 KSNA-KSMF

SWA126 :: KSNA-KSMF

FLIGHT INFORMATION

Flight Status: Arrived
Operator:
Southwest Airlines
More flights by this operator :: More flights under this callsign
Pilot: Chandler S. (807)
Aircraft: BOEING 737-800
(B738)
More flights by this aircraft type
Origin: KSNA John Wayne-Orange Co
United States
Destination: KSMF Sacramento Intl
United States
More flights between these airports :: More routes between these airports
Route: +HHERO3 EHF NURAY SUUTR3
File this flight plan on PilotEdge
Remarks:
Altitude:
(Current/Filed)
34,000ft
Speed:
(Current/Filed)
400kts
Departed: 01-Oct-20 11:48 AM
Arrived: 01-Oct-20 12:57 PM
Distance/Time
Traveled:
351nm/1:08
Distance/Time
To Go:
Arrived

Flight Plot

Page will automatically refresh every two minutes.

Flight plan parsing failed; only flown route is shown


Map Options




Map Legend


Flown Route
Filed Route
Departure Airport
Arrival Airport
Navaid (VOR, NDB)
Fix

Horizontal Profiles

Position Reports

Time Latitude Longitude Heading Altitude Ground
Speed
01-Oct-20 11:32 33.675599 -117.864727 117 66ft 0kts
01-Oct-20 11:32 33.675599 -117.864727 117 66ft 0kts
01-Oct-20 11:33 33.675599 -117.864727 117 66ft 0kts
01-Oct-20 11:34 33.675599 -117.864727 117 66ft 0kts
01-Oct-20 11:35 33.675599 -117.864727 117 66ft 0kts
01-Oct-20 11:36 33.675599 -117.864727 117 66ft 0kts
01-Oct-20 11:37 33.675599 -117.864727 117 66ft 0kts
01-Oct-20 11:38 33.675599 -117.864727 117 66ft 0kts
01-Oct-20 11:39 33.675599 -117.864727 117 66ft 0kts
01-Oct-20 11:40 33.675599 -117.864727 117 66ft 0kts
01-Oct-20 11:41 33.675599 -117.864728 117 67ft 0kts
01-Oct-20 11:42 33.675765 -117.865199 84 67ft 2kts
01-Oct-20 11:43 33.675550 -117.865542 26 67ft 0kts
01-Oct-20 11:44 33.675550 -117.865542 26 67ft 0kts
01-Oct-20 11:45 33.676687 -117.864830 28 66ft 14kts
01-Oct-20 11:46 33.680340 -117.862755 338 66ft 11kts
01-Oct-20 11:47 33.678393 -117.867113 208 67ft 105kts
01-Oct-20 11:48 33.629423 -117.891748 188 4069ft 217kts
01-Oct-20 11:49 33.566956 -117.907188 212 5067ft 250kts
01-Oct-20 11:50 33.515154 -117.963025 223 9196ft 260kts
01-Oct-20 11:51 33.461681 -118.039267 240 10011ft 345kts
01-Oct-20 11:52 33.420249 -118.141598 259 12808ft 330kts
01-Oct-20 11:53 33.429854 -118.250991 283 15881ft 346kts
01-Oct-20 11:54 33.465300 -118.359651 298 18506ft 354kts
01-Oct-20 11:55 33.518353 -118.460078 323 21120ft 366kts
01-Oct-20 11:56 33.616332 -118.478806 9 23069ft 384kts
01-Oct-20 11:57 33.722422 -118.461664 6 25879ft 388kts
01-Oct-20 11:58 33.830864 -118.459572 1 28510ft 392kts
01-Oct-20 11:59 33.941161 -118.459712 1 30567ft 405kts
01-Oct-20 12:00 34.054740 -118.467762 354 32527ft 414kts
01-Oct-20 12:01 34.169059 -118.485365 354 34024ft 431kts
01-Oct-20 12:02 34.295407 -118.504800 353 34032ft 471kts
01-Oct-20 12:03 34.424108 -118.524671 353 34039ft 467kts
01-Oct-20 12:04 34.552507 -118.544534 353 34079ft 467kts
01-Oct-20 12:05 34.681159 -118.564494 353 34145ft 467kts
01-Oct-20 12:06 34.809303 -118.584436 353 34230ft 467kts
01-Oct-20 12:07 34.938153 -118.604549 353 34282ft 466kts
01-Oct-20 12:08 35.055931 -118.661855 322 34281ft 463kts
01-Oct-20 12:09 35.155537 -118.761438 320 34186ft 464kts
01-Oct-20 12:10 35.254897 -118.862163 320 34083ft 465kts
01-Oct-20 12:11 35.354597 -118.963660 320 34082ft 468kts
01-Oct-20 12:12 35.455639 -119.065165 326 34082ft 470kts
01-Oct-20 12:13 35.570925 -119.139757 335 34077ft 469kts
01-Oct-20 12:14 35.689411 -119.206131 336 34073ft 469kts
01-Oct-20 12:15 35.808791 -119.271170 336 34065ft 469kts
01-Oct-20 12:16 35.927980 -119.335759 336 34074ft 469kts
01-Oct-20 12:17 36.047703 -119.400702 336 34086ft 469kts
01-Oct-20 12:18 36.166794 -119.465468 336 34082ft 469kts
01-Oct-20 12:19 36.286218 -119.530629 336 34082ft 469kts
01-Oct-20 12:20 36.405483 -119.595911 336 34082ft 469kts
01-Oct-20 12:21 36.524928 -119.661503 336 34082ft 469kts
01-Oct-20 12:22 36.640061 -119.736385 328 34082ft 470kts
01-Oct-20 12:23 36.750721 -119.822766 328 34080ft 470kts
01-Oct-20 12:24 36.861304 -119.909516 328 34082ft 470kts
01-Oct-20 12:25 36.971522 -119.996301 328 34082ft 470kts
01-Oct-20 12:26 37.081835 -120.083455 328 34082ft 470kts
01-Oct-20 12:27 37.191225 -120.170193 328 32577ft 455kts
01-Oct-20 12:28 37.297425 -120.254788 327 30371ft 442kts
01-Oct-20 12:29 37.399157 -120.336736 328 28167ft 429kts
01-Oct-20 12:30 37.495840 -120.419699 322 26143ft 411kts
01-Oct-20 12:31 37.584771 -120.508989 322 24254ft 402kts
01-Oct-20 12:32 37.670658 -120.595189 322 21956ft 388kts
01-Oct-20 12:33 37.753471 -120.678363 321 19653ft 374kts
01-Oct-20 12:34 37.835050 -120.760847 321 18359ft 380kts
01-Oct-20 12:35 37.915239 -120.842069 321 16756ft 365kts
01-Oct-20 12:36 37.993514 -120.921538 321 15152ft 356kts
01-Oct-20 12:37 38.069769 -120.999412 318 13605ft 350kts
01-Oct-20 12:38 38.132934 -121.090226 311 12104ft 330kts
01-Oct-20 12:39 38.190305 -121.175067 311 10597ft 305kts
01-Oct-20 12:40 38.246423 -121.251773 316 9116ft 290kts
01-Oct-20 12:41 38.302520 -121.322449 316 9013ft 283kts
01-Oct-20 12:42 38.358264 -121.393134 316 8396ft 279kts
01-Oct-20 12:43 38.412881 -121.462548 316 7596ft 276kts
01-Oct-20 12:44 38.466863 -121.531313 316 7022ft 273kts
01-Oct-20 12:45 38.525535 -121.592802 323 6444ft 271kts
01-Oct-20 12:46 38.584610 -121.652384 322 5337ft 267kts
01-Oct-20 12:47 38.650659 -121.687235 355 5018ft 262kts
01-Oct-20 12:48 38.722585 -121.694529 0 4138ft 249kts
01-Oct-20 12:49 38.787163 -121.692456 3 3798ft 226kts
01-Oct-20 12:50 38.848789 -121.687940 9 2403ft 217kts
01-Oct-20 12:51 38.863453 -121.623900 115 2011ft 210kts
01-Oct-20 12:52 38.809190 -121.598283 182 1917ft 192kts
01-Oct-20 12:53 38.766353 -121.599800 180 1218ft 129kts
01-Oct-20 12:54 38.730727 -121.600594 180 521ft 130kts
01-Oct-20 12:55 38.696789 -121.601253 180 34ft 64kts
01-Oct-20 12:56 38.692864 -121.599446 149 34ft 3kts
01-Oct-20 12:57 38.694647 -121.596311 89 34ft 16kts
01-Oct-20 12:58 38.695159 -121.594524 25 34ft 0kts
01-Oct-20 12:59 38.695159 -121.594524 25 34ft 0kts

Navigation Log

Ident Type
Flight plan parsing failed, navigation log unavailable